Daffan, Texas
Current Conditions -  °F | °C
As of 2:55 PM on Tuesday 25 Nov 2014 (Local Time) from KEDC Reporting Station
Clear Clear  
Wind Chill: 66°   Ceiling: Unl
Heat Index: 66°   Visibility: 10mi
Dew Point: 27°   Wind: 12mph
Humidity: 23%   Direction: 270°W
Pressure: 30.24"   Gusts: NA
Location:  30.352°N, 97.5205°W
Report Text: KEDC 252055Z AUTO 27010KT 230V290 10SM CLR 19/M03 A3024 RMK AO2
Loading
Personal Weather Stations






























Interactive Weather Map New forecast layout! Learn more

10-Day Weather Forecast

Advertisements
Track Severe Weather on mobile